• Join FlightAware (Why Join?)
  • Login
  • US Flag 
12:29AM EDT


 

Airport Tracker/Info


-or-


 

Live Flight TrackerFlight Track Log ✈ EJA831 ✈ 02-May-2013 ✈ KAVL - KCRW

Flight Track Log - Related Links

Times and Time Zones

All times are in EDT time to prevent confusion due to time zone crossing. See the EJA831 flight status page for this flight to view local times or setup timezone preferences in your user account.

Time Position Orientation Groundspeed Altitude Reporting Facility
EDT Latitude Longitude Course Direction KTS MPH feet Rate Location/Type
03:47PM 35.4058 -82.4819 18° North 207 238 7,700  Level Atlanta Center
03:48PM 35.4828 -82.4522 17° North 242 278 10,200 2,400 Climbing Atlanta Center
03:49PM 35.5639 -82.4303 12° North 264 304 12,600 2,400 Climbing Atlanta Center
03:50PM 35.6531 -82.4056 13° North 306 352 15,000 1,980 Climbing Atlanta Center
03:51PM 35.7361 -82.3783 15° North 334 384 16,600 960 Climbing Atlanta Center
03:52PM 35.9135 -82.3346 18° North  Level FlightAware Approximate
03:52PM 35.8361 -82.3508 13° North 353 406 17,000  Level Atlanta Center
03:53PM 35.9378 -82.3203 14° North 365 420 17,000  Level Atlanta Center
03:54PM 36.0397 -82.2925 12° North 370 426 17,000  Level Atlanta Center
03:55PM 36.1414 -82.2622 14° North 370 426 17,000  Level Atlanta Center
03:56PM 36.2431 -82.2317 14° North 370 426 17,000  Level Atlanta Center
03:57PM 36.3469 -82.2008 13° North 375 432 17,000  Level Atlanta Center
03:58PM 36.4508 -82.1700 13° North 375 432 17,000  Level Atlanta Center
04:00PM 36.6769 -82.1047 13° North 384 442 17,000  Level Indianapolis Center
04:01PM 36.7806 -82.0742 13° North 383 441 17,000  Level Indianapolis Center
04:02PM 36.9014 -82.0378 14° North 386 444 17,000  Level Indianapolis Center
04:03PM 37.0022 -82.0081 13° North 376 433 17,000  Level Indianapolis Center
04:04PM 37.1081 -81.9775 13° North 385 443 17,000  Level Indianapolis Center
04:05PM 37.2108 -81.9467 13° North 381 438 17,000  Level Indianapolis Center
04:06PM 37.3147 -81.9167 13° North 383 441 17,000  Level Indianapolis Center
04:07PM 37.4353 -81.8814 13° North 380 437 17,000  Level Indianapolis Center
04:08PM 37.5386 -81.8500 14° North 380 437 17,000 -420 Level Indianapolis Center
04:09PM 37.6394 -81.8192 14° North 375 432 16,200 -1,380 Descending Indianapolis Center
04:10PM 37.7353 -81.7889 14° North 362 417 14,200 -2,220 Descending Indianapolis Center
04:11PM 37.8228 -81.7428 23° Northeast 343 395 11,700 -2,520 Descending Indianapolis Center
04:12PM 37.9094 -81.7064 18° North 308 354 9,000 -1,800 Descending Indianapolis Center
04:13PM 37.9783 -81.6708 22° Northeast 272 313 8,000 -600 Descending Indianapolis Center
04:14PM 38.0464 -81.6364 22° Northeast 263 303 7,800 -1,020 Descending Indianapolis Center
04:15PM 38.1214 -81.5994 21° North 243 280 6,000 -1,260 Descending Indianapolis Center
04:16PM 38.1889 -81.5661 21° North 256 295 5,300 -540 Descending Indianapolis Center
04:17PM 38.2569 -81.5342 20° North 259 298 5,000 -180 Descending Indianapolis Center
04:19PM 38.3189 -81.5039 21° North 243 280 5,000 -420 Level Indianapolis Center
04:20PM 38.3786 -81.4769 19° North 230 265 4,200 -540 Descending Indianapolis Center
04:21PM 38.4378 -81.4542 17° North 226 260 4,000 -480 Descending Indianapolis Center
04:22PM 38.4444 -81.5011 280° West 189 217 3,300 -1,020 Descending Indianapolis Center
04:23PM 38.4131 -81.5431 226° Southwest 152 175 1,900 -1,020 Descending Indianapolis Center
04:24PM 38.3869 -81.5792 227° Southwest 139 160 1,300 -600 Descending Indianapolis Center